sensor_id;sensor_type;location;lat;lon;timestamp;temperature;humidity
22781;DHT22;11557;50.884;4.322;2023-10-09T00:02:12;18.00;99.90
22781;DHT22;11557;50.884;4.322;2023-10-09T00:04:40;18.00;99.90
22781;DHT22;11557;50.884;4.322;2023-10-09T00:07:11;17.90;99.90
22781;DHT22;11557;50.884;4.322;2023-10-09T00:09:37;17.90;99.90
22781;DHT22;11557;50.884;4.322;2023-10-09T00:12:23;18.00;99.90
22781;DHT22;11557;50.884;4.322;2023-10-09T00:14:49;18.00;99.90
22781;DHT22;11557;50.884;4.322;2023-10-09T00:17:18;18.00;99.90
22781;DHT22;11557;50.884;4.322;2023-10-09T00:19:47;17.90;99.90
22781;DHT22;11557;50.884;4.322;2023-10-09T00:22:14;18.00;99.90
22781;DHT22;11557;50.884;4.322;2023-10-09T00:24:56;18.00;99.90
22781;DHT22;11557;50.884;4.322;2023-10-09T00:27:43;18.00;99.90
22781;DHT22;11557;50.884;4.322;2023-10-09T00:30:15;17.90;99.90
22781;DHT22;11557;50.884;4.322;2023-10-09T00:32:43;17.90;99.90
22781;DHT22;11557;50.884;4.322;2023-10-09T00:35:29;17.90;99.90
22781;DHT22;11557;50.884;4.322;2023-10-09T00:38:24;18.00;99.90
22781;DHT22;11557;50.884;4.322;2023-10-09T00:40:57;17.90;99.90
22781;DHT22;11557;50.884;4.322;2023-10-09T00:43:29;17.90;99.90
22781;DHT22;11557;50.884;4.322;2023-10-09T00:45:58;17.90;99.90
22781;DHT22;11557;50.884;4.322;2023-10-09T00:48:43;18.00;99.90
22781;DHT22;11557;50.884;4.322;2023-10-09T00:51:13;18.00;99.90
22781;DHT22;11557;50.884;4.322;2023-10-09T00:53:54;18.00;99.90
22781;DHT22;11557;50.884;4.322;2023-10-09T00:56:21;18.00;99.90
22781;DHT22;11557;50.884;4.322;2023-10-09T00:58:50;18.10;99.90
22781;DHT22;11557;50.884;4.322;2023-10-09T01:01:40;18.10;99.90
22781;DHT22;11557;50.884;4.322;2023-10-09T01:04:10;18.00;99.90
22781;DHT22;11557;50.884;4.322;2023-10-09T01:06:41;18.00;99.90
22781;DHT22;11557;50.884;4.322;2023-10-09T01:09:16;18.00;99.90
22781;DHT22;11557;50.884;4.322;2023-10-09T01:11:48;18.00;99.90
22781;DHT22;11557;50.884;4.322;2023-10-09T01:14:15;18.00;99.90
22781;DHT22;11557;50.884;4.322;2023-10-09T01:16:41;17.90;99.90
22781;DHT22;11557;50.884;4.322;2023-10-09T01:19:08;18.00;99.90
22781;DHT22;11557;50.884;4.322;2023-10-09T01:21:46;18.00;99.90
22781;DHT22;11557;50.884;4.322;2023-10-09T01:24:12;18.00;99.90
22781;DHT22;11557;50.884;4.322;2023-10-09T01:26:41;18.10;99.90
22781;DHT22;11557;50.884;4.322;2023-10-09T01:29:19;18.10;99.90
22781;DHT22;11557;50.884;4.322;2023-10-09T01:31:50;18.00;99.90
22781;DHT22;11557;50.884;4.322;2023-10-09T01:34:30;18.10;99.90
22781;DHT22;11557;50.884;4.322;2023-10-09T01:37:15;18.20;99.90
22781;DHT22;11557;50.884;4.322;2023-10-09T01:39:48;18.20;99.90
22781;DHT22;11557;50.884;4.322;2023-10-09T01:42:17;18.20;99.90
22781;DHT22;11557;50.884;4.322;2023-10-09T01:44:50;18.10;99.90
22781;DHT22;11557;50.884;4.322;2023-10-09T01:47:18;18.10;99.90
22781;DHT22;11557;50.884;4.322;2023-10-09T01:49:45;18.10;99.90
22781;DHT22;11557;50.884;4.322;2023-10-09T01:52:14;18.10;99.90
22781;DHT22;11557;50.884;4.322;2023-10-09T01:54:50;18.10;99.90
22781;DHT22;11557;50.884;4.322;2023-10-09T01:57:17;18.20;99.90
22781;DHT22;11557;50.884;4.322;2023-10-09T01:59:50;18.10;99.90
22781;DHT22;11557;50.884;4.322;2023-10-09T02:02:19;18.10;99.90
22781;DHT22;11557;50.884;4.322;2023-10-09T02:04:57;18.00;99.90
22781;DHT22;11557;50.884;4.322;2023-10-09T02:07:31;18.10;99.90
22781;DHT22;11557;50.884;4.322;2023-10-09T02:10:07;18.00;99.90
22781;DHT22;11557;50.884;4.322;2023-10-09T02:12:53;18.00;99.90
22781;DHT22;11557;50.884;4.322;2023-10-09T02:15:40;18.10;99.90
22781;DHT22;11557;50.884;4.322;2023-10-09T02:18:06;18.10;99.90
22781;DHT22;11557;50.884;4.322;2023-10-09T02:20:47;18.00;99.90
22781;DHT22;11557;50.884;4.322;2023-10-09T02:23:20;18.00;99.90
22781;DHT22;11557;50.884;4.322;2023-10-09T02:25:49;18.00;99.90
22781;DHT22;11557;50.884;4.322;2023-10-09T02:28:19;18.10;99.90
22781;DHT22;11557;50.884;4.322;2023-10-09T02:30:45;18.00;99.90
22781;DHT22;11557;50.884;4.322;2023-10-09T02:33:17;18.00;99.90
22781;DHT22;11557;50.884;4.322;2023-10-09T02:35:56;18.10;99.90
22781;DHT22;11557;50.884;4.322;2023-10-09T02:38:25;18.10;99.90
22781;DHT22;11557;50.884;4.322;2023-10-09T02:40:52;17.90;99.90
22781;DHT22;11557;50.884;4.322;2023-10-09T02:43:34;17.90;99.90
22781;DHT22;11557;50.884;4.322;2023-10-09T02:46:13;17.90;99.90
22781;DHT22;11557;50.884;4.322;2023-10-09T02:48:50;17.90;99.90
22781;DHT22;11557;50.884;4.322;2023-10-09T02:51:19;18.00;99.90
22781;DHT22;11557;50.884;4.322;2023-10-09T02:54:00;17.90;99.90
22781;DHT22;11557;50.884;4.322;2023-10-09T02:56:32;17.90;99.90
22781;DHT22;11557;50.884;4.322;2023-10-09T02:59:09;17.90;99.90
22781;DHT22;11557;50.884;4.322;2023-10-09T03:01:36;18.00;99.90
22781;DHT22;11557;50.884;4.322;2023-10-09T03:04:06;18.00;99.90
22781;DHT22;11557;50.884;4.322;2023-10-09T03:06:32;18.00;99.90
22781;DHT22;11557;50.884;4.322;2023-10-09T03:09:01;18.00;99.90
22781;DHT22;11557;50.884;4.322;2023-10-09T03:11:45;17.90;99.90
22781;DHT22;11557;50.884;4.322;2023-10-09T03:14:12;18.00;99.90
22781;DHT22;11557;50.884;4.322;2023-10-09T03:16:38;17.90;99.90
22781;DHT22;11557;50.884;4.322;2023-10-09T03:19:04;18.00;99.90
22781;DHT22;11557;50.884;4.322;2023-10-09T03:21:29;18.00;99.90
22781;DHT22;11557;50.884;4.322;2023-10-09T03:23:56;17.90;99.90
22781;DHT22;11557;50.884;4.322;2023-10-09T03:26:22;17.90;99.90
22781;DHT22;11557;50.884;4.322;2023-10-09T03:28:51;17.90;99.90
22781;DHT22;11557;50.884;4.322;2023-10-09T03:31:18;17.80;99.90
22781;DHT22;11557;50.884;4.322;2023-10-09T03:33:43;17.80;99.90
22781;DHT22;11557;50.884;4.322;2023-10-09T03:36:09;17.80;99.90
22781;DHT22;11557;50.884;4.322;2023-10-09T03:38:39;17.70;99.90
22781;DHT22;11557;50.884;4.322;2023-10-09T03:41:07;17.70;99.90
22781;DHT22;11557;50.884;4.322;2023-10-09T03:43:38;17.70;99.90
22781;DHT22;11557;50.884;4.322;2023-10-09T03:46:10;17.70;99.90
22781;DHT22;11557;50.884;4.322;2023-10-09T03:48:59;17.70;99.90
22781;DHT22;11557;50.884;4.322;2023-10-09T03:51:28;17.70;99.90
22781;DHT22;11557;50.884;4.322;2023-10-09T03:53:55;17.70;99.90
22781;DHT22;11557;50.884;4.322;2023-10-09T03:56:21;17.70;99.90
22781;DHT22;11557;50.884;4.322;2023-10-09T03:58:49;17.70;99.90
22781;DHT22;11557;50.884;4.322;2023-10-09T04:01:19;17.70;99.90
22781;DHT22;11557;50.884;4.322;2023-10-09T04:03:49;17.70;99.90
22781;DHT22;11557;50.884;4.322;2023-10-09T04:06:23;17.70;99.90
22781;DHT22;11557;50.884;4.322;2023-10-09T04:08:48;17.70;99.90
22781;DHT22;11557;50.884;4.322;2023-10-09T04:11:16;17.70;99.90
22781;DHT22;11557;50.884;4.322;2023-10-09T04:13:45;17.70;99.90
22781;DHT22;11557;50.884;4.322;2023-10-09T04:16:12;17.70;99.90
22781;DHT22;11557;50.884;4.322;2023-10-09T04:18:56;17.70;99.90
22781;DHT22;11557;50.884;4.322;2023-10-09T04:21:26;17.80;99.90
22781;DHT22;11557;50.884;4.322;2023-10-09T04:24:04;17.70;99.90
22781;DHT22;11557;50.884;4.322;2023-10-09T04:26:40;17.70;99.90
22781;DHT22;11557;50.884;4.322;2023-10-09T04:29:16;17.60;99.90
22781;DHT22;11557;50.884;4.322;2023-10-09T04:31:56;17.50;99.90
22781;DHT22;11557;50.884;4.322;2023-10-09T04:34:26;17.60;99.90
22781;DHT22;11557;50.884;4.322;2023-10-09T04:37:00;17.60;99.90
22781;DHT22;11557;50.884;4.322;2023-10-09T04:39:27;17.60;99.90
22781;DHT22;11557;50.884;4.322;2023-10-09T04:41:56;17.50;99.90
22781;DHT22;11557;50.884;4.322;2023-10-09T04:44:44;17.50;99.90
22781;DHT22;11557;50.884;4.322;2023-10-09T04:47:28;17.60;99.90
22781;DHT22;11557;50.884;4.322;2023-10-09T04:50:12;17.70;99.90
22781;DHT22;11557;50.884;4.322;2023-10-09T04:52:40;17.70;99.90
22781;DHT22;11557;50.884;4.322;2023-10-09T04:55:07;17.70;99.90
22781;DHT22;11557;50.884;4.322;2023-10-09T04:57:34;17.50;99.90
22781;DHT22;11557;50.884;4.322;2023-10-09T05:00:12;17.50;99.90
22781;DHT22;11557;50.884;4.322;2023-10-09T05:02:54;17.60;99.90
22781;DHT22;11557;50.884;4.322;2023-10-09T05:05:24;17.70;99.90
22781;DHT22;11557;50.884;4.322;2023-10-09T05:08:10;17.60;99.90
22781;DHT22;11557;50.884;4.322;2023-10-09T05:11:09;17.60;99.90
22781;DHT22;11557;50.884;4.322;2023-10-09T05:13:42;17.60;99.90
22781;DHT22;11557;50.884;4.322;2023-10-09T05:18:50;17.60;99.90
22781;DHT22;11557;50.884;4.322;2023-10-09T05:21:29;17.50;99.90
22781;DHT22;11557;50.884;4.322;2023-10-09T05:23:56;17.60;99.90
22781;DHT22;11557;50.884;4.322;2023-10-09T05:26:38;17.60;99.90
22781;DHT22;11557;50.884;4.322;2023-10-09T05:32:00;17.60;99.90
22781;DHT22;11557;50.884;4.322;2023-10-09T05:34:26;17.60;99.90
22781;DHT22;11557;50.884;4.322;2023-10-09T05:37:10;17.70;99.90
22781;DHT22;11557;50.884;4.322;2023-10-09T05:39:55;17.60;99.90
22781;DHT22;11557;50.884;4.322;2023-10-09T05:42:24;17.60;99.90
22781;DHT22;11557;50.884;4.322;2023-10-09T05:44:55;17.60;99.90
22781;DHT22;11557;50.884;4.322;2023-10-09T05:47:39;17.70;99.90
22781;DHT22;11557;50.884;4.322;2023-10-09T05:50:21;17.60;99.90
22781;DHT22;11557;50.884;4.322;2023-10-09T05:52:47;17.60;99.90
22781;DHT22;11557;50.884;4.322;2023-10-09T05:55:16;17.70;99.90
22781;DHT22;11557;50.884;4.322;2023-10-09T05:57:45;17.60;99.90
22781;DHT22;11557;50.884;4.322;2023-10-09T06:00:23;17.60;99.90
22781;DHT22;11557;50.884;4.322;2023-10-09T06:03:07;17.50;99.90
22781;DHT22;11557;50.884;4.322;2023-10-09T06:05:56;17.50;99.90
22781;DHT22;11557;50.884;4.322;2023-10-09T06:08:26;17.50;99.90
22781;DHT22;11557;50.884;4.322;2023-10-09T06:11:07;17.50;99.90
22781;DHT22;11557;50.884;4.322;2023-10-09T06:13:52;17.50;99.90
22781;DHT22;11557;50.884;4.322;2023-10-09T06:16:40;17.50;99.90
22781;DHT22;11557;50.884;4.322;2023-10-09T06:19:36;17.60;99.90
22781;DHT22;11557;50.884;4.322;2023-10-09T06:22:11;17.60;99.90
22781;DHT22;11557;50.884;4.322;2023-10-09T06:25:08;17.60;99.90
22781;DHT22;11557;50.884;4.322;2023-10-09T06:27:34;17.60;99.90
22781;DHT22;11557;50.884;4.322;2023-10-09T06:30:00;17.60;99.90
22781;DHT22;11557;50.884;4.322;2023-10-09T06:32:38;17.60;99.90
22781;DHT22;11557;50.884;4.322;2023-10-09T06:35:15;17.60;99.90
22781;DHT22;11557;50.884;4.322;2023-10-09T06:37:57;17.60;99.90
22781;DHT22;11557;50.884;4.322;2023-10-09T06:40:38;17.70;99.90
22781;DHT22;11557;50.884;4.322;2023-10-09T06:43:24;17.60;99.90
22781;DHT22;11557;50.884;4.322;2023-10-09T06:45:50;17.60;99.90
22781;DHT22;11557;50.884;4.322;2023-10-09T06:48:42;17.60;99.90
22781;DHT22;11557;50.884;4.322;2023-10-09T06:51:12;17.50;99.90
22781;DHT22;11557;50.884;4.322;2023-10-09T06:53:56;17.60;99.90
22781;DHT22;11557;50.884;4.322;2023-10-09T06:56:29;17.60;99.90
22781;DHT22;11557;50.884;4.322;2023-10-09T06:59:05;17.50;99.90
22781;DHT22;11557;50.884;4.322;2023-10-09T07:01:51;17.50;99.90
22781;DHT22;11557;50.884;4.322;2023-10-09T07:04:37;17.70;99.90
22781;DHT22;11557;50.884;4.322;2023-10-09T07:07:03;17.80;99.90
22781;DHT22;11557;50.884;4.322;2023-10-09T07:09:49;17.90;99.90
22781;DHT22;11557;50.884;4.322;2023-10-09T07:12:33;17.90;99.90
22781;DHT22;11557;50.884;4.322;2023-10-09T07:15:02;18.00;99.90
22781;DHT22;11557;50.884;4.322;2023-10-09T07:17:50;18.10;99.90
22781;DHT22;11557;50.884;4.322;2023-10-09T07:20:18;18.30;99.90
22781;DHT22;11557;50.884;4.322;2023-10-09T07:23:02;18.30;99.90
22781;DHT22;11557;50.884;4.322;2023-10-09T07:25:41;18.40;99.90
22781;DHT22;11557;50.884;4.322;2023-10-09T07:28:11;18.20;99.90
22781;DHT22;11557;50.884;4.322;2023-10-09T07:31:02;18.20;99.90
22781;DHT22;11557;50.884;4.322;2023-10-09T07:33:28;18.20;99.90
22781;DHT22;11557;50.884;4.322;2023-10-09T07:36:18;18.20;99.90
22781;DHT22;11557;50.884;4.322;2023-10-09T07:38:55;18.30;99.90
22781;DHT22;11557;50.884;4.322;2023-10-09T07:41:21;18.20;99.90
22781;DHT22;11557;50.884;4.322;2023-10-09T07:43:47;18.10;99.90
22781;DHT22;11557;50.884;4.322;2023-10-09T07:46:19;18.00;99.90
22781;DHT22;11557;50.884;4.322;2023-10-09T07:49:17;18.20;99.90
22781;DHT22;11557;50.884;4.322;2023-10-09T07:51:50;18.40;99.90
22781;DHT22;11557;50.884;4.322;2023-10-09T07:54:18;18.50;99.90
22781;DHT22;11557;50.884;4.322;2023-10-09T07:56:58;18.40;99.90
22781;DHT22;11557;50.884;4.322;2023-10-09T07:59:34;18.60;99.90
22781;DHT22;11557;50.884;4.322;2023-10-09T08:02:07;18.60;99.90
22781;DHT22;11557;50.884;4.322;2023-10-09T08:04:39;18.50;99.90
22781;DHT22;11557;50.884;4.322;2023-10-09T08:07:14;18.70;99.90
22781;DHT22;11557;50.884;4.322;2023-10-09T08:09:56;18.80;99.90
22781;DHT22;11557;50.884;4.322;2023-10-09T08:12:42;18.90;99.90
22781;DHT22;11557;50.884;4.322;2023-10-09T08:15:24;18.90;99.90
22781;DHT22;11557;50.884;4.322;2023-10-09T08:18:12;18.90;99.90
22781;DHT22;11557;50.884;4.322;2023-10-09T08:20:44;18.90;99.90
22781;DHT22;11557;50.884;4.322;2023-10-09T08:23:27;18.80;99.90
22781;DHT22;11557;50.884;4.322;2023-10-09T08:26:12;18.90;99.90
22781;DHT22;11557;50.884;4.322;2023-10-09T08:28:42;18.90;99.90
22781;DHT22;11557;50.884;4.322;2023-10-09T08:31:16;19.00;99.90
22781;DHT22;11557;50.884;4.322;2023-10-09T08:33:46;19.00;99.90
22781;DHT22;11557;50.884;4.322;2023-10-09T08:36:22;19.00;99.90
22781;DHT22;11557;50.884;4.322;2023-10-09T08:38:56;19.10;99.90
22781;DHT22;11557;50.884;4.322;2023-10-09T08:41:26;19.00;99.90
22781;DHT22;11557;50.884;4.322;2023-10-09T08:43:56;19.20;99.90
22781;DHT22;11557;50.884;4.322;2023-10-09T08:46:24;19.10;99.90
22781;DHT22;11557;50.884;4.322;2023-10-09T08:48:58;19.00;99.90
22781;DHT22;11557;50.884;4.322;2023-10-09T08:51:25;18.90;99.90
22781;DHT22;11557;50.884;4.322;2023-10-09T08:53:52;19.10;99.90
22781;DHT22;11557;50.884;4.322;2023-10-09T08:56:19;19.10;99.90
22781;DHT22;11557;50.884;4.322;2023-10-09T08:58:52;19.30;99.90
22781;DHT22;11557;50.884;4.322;2023-10-09T09:01:18;19.30;99.90
22781;DHT22;11557;50.884;4.322;2023-10-09T09:03:47;19.60;99.90
22781;DHT22;11557;50.884;4.322;2023-10-09T09:06:13;19.90;99.90
22781;DHT22;11557;50.884;4.322;2023-10-09T09:08:40;20.10;99.90
22781;DHT22;11557;50.884;4.322;2023-10-09T09:11:14;20.10;99.90
22781;DHT22;11557;50.884;4.322;2023-10-09T09:16:29;20.20;99.90
22781;DHT22;11557;50.884;4.322;2023-10-09T09:19:03;20.30;99.90
22781;DHT22;11557;50.884;4.322;2023-10-09T09:21:35;20.40;99.90
22781;DHT22;11557;50.884;4.322;2023-10-09T09:24:09;20.60;99.90
22781;DHT22;11557;50.884;4.322;2023-10-09T09:27:01;20.40;99.90
22781;DHT22;11557;50.884;4.322;2023-10-09T09:29:44;20.50;99.90
22781;DHT22;11557;50.884;4.322;2023-10-09T09:32:31;20.60;99.90
22781;DHT22;11557;50.884;4.322;2023-10-09T09:35:04;20.60;99.90
22781;DHT22;11557;50.884;4.322;2023-10-09T09:37:52;20.20;99.90
22781;DHT22;11557;50.884;4.322;2023-10-09T09:40:18;20.20;99.90
22781;DHT22;11557;50.884;4.322;2023-10-09T09:43:01;20.20;99.90
22781;DHT22;11557;50.884;4.322;2023-10-09T09:45:40;20.40;99.90
22781;DHT22;11557;50.884;4.322;2023-10-09T09:48:12;20.50;99.90
22781;DHT22;11557;50.884;4.322;2023-10-09T09:50:41;20.70;99.90
22781;DHT22;11557;50.884;4.322;2023-10-09T09:53:14;20.80;99.90
22781;DHT22;11557;50.884;4.322;2023-10-09T09:55:51;21.00;99.90
22781;DHT22;11557;50.884;4.322;2023-10-09T09:58:23;21.10;99.90
22781;DHT22;11557;50.884;4.322;2023-10-09T10:00:56;21.10;99.90
22781;DHT22;11557;50.884;4.322;2023-10-09T10:03:37;21.00;99.90
22781;DHT22;11557;50.884;4.322;2023-10-09T10:06:05;21.00;99.90
22781;DHT22;11557;50.884;4.322;2023-10-09T10:08:35;21.00;99.90
22781;DHT22;11557;50.884;4.322;2023-10-09T10:11:05;20.80;99.90
22781;DHT22;11557;50.884;4.322;2023-10-09T10:16:11;20.70;99.90
22781;DHT22;11557;50.884;4.322;2023-10-09T10:19:04;20.70;99.90
22781;DHT22;11557;50.884;4.322;2023-10-09T10:21:33;20.50;99.90
22781;DHT22;11557;50.884;4.322;2023-10-09T10:27:16;20.60;99.90
22781;DHT22;11557;50.884;4.322;2023-10-09T10:32:55;20.90;99.90
22781;DHT22;11557;50.884;4.322;2023-10-09T10:35:23;21.00;99.90
22781;DHT22;11557;50.884;4.322;2023-10-09T10:38:02;21.20;99.90
22781;DHT22;11557;50.884;4.322;2023-10-09T10:40:37;21.10;99.90
22781;DHT22;11557;50.884;4.322;2023-10-09T10:43:18;21.10;99.90
22781;DHT22;11557;50.884;4.322;2023-10-09T10:46:07;21.10;99.90
22781;DHT22;11557;50.884;4.322;2023-10-09T10:48:52;21.10;99.90
22781;DHT22;11557;50.884;4.322;2023-10-09T10:51:37;21.20;99.90
22781;DHT22;11557;50.884;4.322;2023-10-09T10:54:07;21.20;99.90
22781;DHT22;11557;50.884;4.322;2023-10-09T10:56:51;21.10;99.90
22781;DHT22;11557;50.884;4.322;2023-10-09T10:59:18;21.20;99.90
22781;DHT22;11557;50.884;4.322;2023-10-09T11:01:53;21.20;99.90
22781;DHT22;11557;50.884;4.322;2023-10-09T11:04:25;21.20;99.90
22781;DHT22;11557;50.884;4.322;2023-10-09T11:06:56;21.50;99.90
22781;DHT22;11557;50.884;4.322;2023-10-09T11:15:11;21.40;99.90
22781;DHT22;11557;50.884;4.322;2023-10-09T11:18:01;21.50;99.90
22781;DHT22;11557;50.884;4.322;2023-10-09T11:20:42;21.70;99.90
22781;DHT22;11557;50.884;4.322;2023-10-09T11:23:22;21.60;99.90
22781;DHT22;11557;50.884;4.322;2023-10-09T11:26:09;21.70;99.90
22781;DHT22;11557;50.884;4.322;2023-10-09T11:29:11;21.80;99.90
22781;DHT22;11557;50.884;4.322;2023-10-09T11:32:02;21.90;99.90
22781;DHT22;11557;50.884;4.322;2023-10-09T11:34:32;21.90;99.90
22781;DHT22;11557;50.884;4.322;2023-10-09T11:37:15;21.80;99.90
22781;DHT22;11557;50.884;4.322;2023-10-09T11:39:41;21.80;99.90
22781;DHT22;11557;50.884;4.322;2023-10-09T11:42:18;21.80;99.90
22781;DHT22;11557;50.884;4.322;2023-10-09T11:45:05;22.00;99.90
22781;DHT22;11557;50.884;4.322;2023-10-09T11:47:49;22.00;99.90
22781;DHT22;11557;50.884;4.322;2023-10-09T11:50:46;22.10;99.90
22781;DHT22;11557;50.884;4.322;2023-10-09T11:53:14;22.10;99.90
22781;DHT22;11557;50.884;4.322;2023-10-09T11:55:49;22.20;99.90
22781;DHT22;11557;50.884;4.322;2023-10-09T11:58:16;22.30;99.90
22781;DHT22;11557;50.884;4.322;2023-10-09T12:00:52;22.20;99.90
22781;DHT22;11557;50.884;4.322;2023-10-09T12:03:23;22.10;99.90
22781;DHT22;11557;50.884;4.322;2023-10-09T12:05:54;22.20;99.90
22781;DHT22;11557;50.884;4.322;2023-10-09T12:08:22;22.10;99.90
22781;DHT22;11557;50.884;4.322;2023-10-09T12:10:54;22.00;99.90
22781;DHT22;11557;50.884;4.322;2023-10-09T12:13:24;22.00;99.90
22781;DHT22;11557;50.884;4.322;2023-10-09T12:15:51;22.00;99.90
22781;DHT22;11557;50.884;4.322;2023-10-09T12:18:19;22.20;99.90
22781;DHT22;11557;50.884;4.322;2023-10-09T12:20:45;22.10;99.90
22781;DHT22;11557;50.884;4.322;2023-10-09T12:23:28;22.10;99.90
22781;DHT22;11557;50.884;4.322;2023-10-09T12:25:54;22.20;99.90
22781;DHT22;11557;50.884;4.322;2023-10-09T12:28:23;22.20;99.90
22781;DHT22;11557;50.884;4.322;2023-10-09T12:30:49;22.20;99.90
22781;DHT22;11557;50.884;4.322;2023-10-09T12:33:18;22.10;99.90
22781;DHT22;11557;50.884;4.322;2023-10-09T12:35:54;22.20;99.90
22781;DHT22;11557;50.884;4.322;2023-10-09T12:38:26;22.30;99.90
22781;DHT22;11557;50.884;4.322;2023-10-09T12:41:07;22.40;99.90
22781;DHT22;11557;50.884;4.322;2023-10-09T12:43:46;22.40;99.90
22781;DHT22;11557;50.884;4.322;2023-10-09T12:46:12;22.50;99.90
22781;DHT22;11557;50.884;4.322;2023-10-09T12:48:43;22.60;99.90
22781;DHT22;11557;50.884;4.322;2023-10-09T12:51:12;22.70;99.90
22781;DHT22;11557;50.884;4.322;2023-10-09T12:53:44;22.70;99.90
22781;DHT22;11557;50.884;4.322;2023-10-09T12:56:11;22.70;99.90
22781;DHT22;11557;50.884;4.322;2023-10-09T12:58:38;22.60;99.90
22781;DHT22;11557;50.884;4.322;2023-10-09T13:01:04;22.60;99.90
22781;DHT22;11557;50.884;4.322;2023-10-09T13:03:37;22.60;99.90
22781;DHT22;11557;50.884;4.322;2023-10-09T13:06:06;22.70;99.90
22781;DHT22;11557;50.884;4.322;2023-10-09T13:08:37;22.70;99.90
22781;DHT22;11557;50.884;4.322;2023-10-09T13:11:07;22.60;99.90
22781;DHT22;11557;50.884;4.322;2023-10-09T13:13:37;22.60;99.90
22781;DHT22;11557;50.884;4.322;2023-10-09T13:16:12;22.60;99.90
22781;DHT22;11557;50.884;4.322;2023-10-09T13:18:42;22.60;99.90
22781;DHT22;11557;50.884;4.322;2023-10-09T13:21:19;22.60;99.90
22781;DHT22;11557;50.884;4.322;2023-10-09T13:23:45;22.60;99.90
22781;DHT22;11557;50.884;4.322;2023-10-09T13:26:18;22.60;99.90
22781;DHT22;11557;50.884;4.322;2023-10-09T13:28:46;22.60;99.90
22781;DHT22;11557;50.884;4.322;2023-10-09T13:31:15;22.70;99.90
22781;DHT22;11557;50.884;4.322;2023-10-09T13:33:41;22.60;99.90
22781;DHT22;11557;50.884;4.322;2023-10-09T13:36:11;22.60;99.90
22781;DHT22;11557;50.884;4.322;2023-10-09T13:38:56;22.60;99.90
22781;DHT22;11557;50.884;4.322;2023-10-09T13:41:24;22.60;99.90
22781;DHT22;11557;50.884;4.322;2023-10-09T13:43:56;22.70;99.90
22781;DHT22;11557;50.884;4.322;2023-10-09T13:46:24;22.70;99.90
22781;DHT22;11557;50.884;4.322;2023-10-09T13:48:50;22.80;99.90
22781;DHT22;11557;50.884;4.322;2023-10-09T13:51:18;22.80;99.90
22781;DHT22;11557;50.884;4.322;2023-10-09T13:53:45;22.80;99.90
22781;DHT22;11557;50.884;4.322;2023-10-09T13:56:15;22.80;99.90
22781;DHT22;11557;50.884;4.322;2023-10-09T13:58:48;22.80;99.90
22781;DHT22;11557;50.884;4.322;2023-10-09T14:01:15;22.80;99.90
22781;DHT22;11557;50.884;4.322;2023-10-09T14:03:58;22.80;99.90
22781;DHT22;11557;50.884;4.322;2023-10-09T14:06:25;22.90;99.90
22781;DHT22;11557;50.884;4.322;2023-10-09T14:09:03;22.90;99.90
22781;DHT22;11557;50.884;4.322;2023-10-09T14:11:35;23.00;99.90
22781;DHT22;11557;50.884;4.322;2023-10-09T14:14:05;23.10;99.90
22781;DHT22;11557;50.884;4.322;2023-10-09T14:16:36;23.00;99.90
22781;DHT22;11557;50.884;4.322;2023-10-09T14:19:02;23.10;99.90
22781;DHT22;11557;50.884;4.322;2023-10-09T14:21:33;23.00;99.90
22781;DHT22;11557;50.884;4.322;2023-10-09T14:24:04;23.00;99.90
22781;DHT22;11557;50.884;4.322;2023-10-09T14:26:41;23.10;99.90
22781;DHT22;11557;50.884;4.322;2023-10-09T14:29:07;23.10;99.90
22781;DHT22;11557;50.884;4.322;2023-10-09T14:31:32;23.00;99.90
22781;DHT22;11557;50.884;4.322;2023-10-09T14:34:05;23.00;99.90
22781;DHT22;11557;50.884;4.322;2023-10-09T14:36:31;23.00;99.90
22781;DHT22;11557;50.884;4.322;2023-10-09T14:39:00;23.00;99.90
22781;DHT22;11557;50.884;4.322;2023-10-09T14:41:27;23.00;99.90
22781;DHT22;11557;50.884;4.322;2023-10-09T14:43:53;23.00;99.90
22781;DHT22;11557;50.884;4.322;2023-10-09T14:46:20;22.90;99.90
22781;DHT22;11557;50.884;4.322;2023-10-09T14:48:52;22.90;99.90
22781;DHT22;11557;50.884;4.322;2023-10-09T14:51:22;23.00;99.90
22781;DHT22;11557;50.884;4.322;2023-10-09T14:53:58;23.00;99.90
22781;DHT22;11557;50.884;4.322;2023-10-09T14:56:28;23.00;99.90
22781;DHT22;11557;50.884;4.322;2023-10-09T14:58:59;22.90;99.90
22781;DHT22;11557;50.884;4.322;2023-10-09T15:01:28;22.90;99.90
22781;DHT22;11557;50.884;4.322;2023-10-09T15:04:04;22.80;99.90
22781;DHT22;11557;50.884;4.322;2023-10-09T15:06:30;22.80;99.90
22781;DHT22;11557;50.884;4.322;2023-10-09T15:08:59;22.70;99.90
22781;DHT22;11557;50.884;4.322;2023-10-09T15:11:35;22.70;99.90
22781;DHT22;11557;50.884;4.322;2023-10-09T15:14:04;22.90;99.90
22781;DHT22;11557;50.884;4.322;2023-10-09T15:16:31;22.80;99.90
22781;DHT22;11557;50.884;4.322;2023-10-09T15:18:57;22.80;99.90
22781;DHT22;11557;50.884;4.322;2023-10-09T15:21:24;22.70;99.90
22781;DHT22;11557;50.884;4.322;2023-10-09T15:23:57;22.80;99.90
22781;DHT22;11557;50.884;4.322;2023-10-09T15:26:23;22.80;99.90
22781;DHT22;11557;50.884;4.322;2023-10-09T15:28:51;22.70;99.90
22781;DHT22;11557;50.884;4.322;2023-10-09T15:31:17;22.60;99.90
22781;DHT22;11557;50.884;4.322;2023-10-09T15:33:44;22.60;99.90
22781;DHT22;11557;50.884;4.322;2023-10-09T15:36:13;22.50;99.90
22781;DHT22;11557;50.884;4.322;2023-10-09T15:38:39;22.40;99.90
22781;DHT22;11557;50.884;4.322;2023-10-09T15:41:05;22.30;99.90
22781;DHT22;11557;50.884;4.322;2023-10-09T15:43:35;22.40;99.90
22781;DHT22;11557;50.884;4.322;2023-10-09T15:46:01;22.40;99.90
22781;DHT22;11557;50.884;4.322;2023-10-09T15:48:30;22.30;99.90
22781;DHT22;11557;50.884;4.322;2023-10-09T15:50:58;21.60;99.90
22781;DHT22;11557;50.884;4.322;2023-10-09T15:53:24;22.40;99.90
22781;DHT22;11557;50.884;4.322;2023-10-09T15:55:50;22.30;99.90
22781;DHT22;11557;50.884;4.322;2023-10-09T15:58:19;22.30;99.90
22781;DHT22;11557;50.884;4.322;2023-10-09T16:00:45;22.30;99.90
22781;DHT22;11557;50.884;4.322;2023-10-09T16:03:11;22.20;99.90
22781;DHT22;11557;50.884;4.322;2023-10-09T16:05:40;22.10;99.90
22781;DHT22;11557;50.884;4.322;2023-10-09T16:08:06;22.10;99.90
22781;DHT22;11557;50.884;4.322;2023-10-09T16:10:32;22.10;99.90
22781;DHT22;11557;50.884;4.322;2023-10-09T16:13:00;22.00;99.90
22781;DHT22;11557;50.884;4.322;2023-10-09T16:15:26;21.50;99.90
22781;DHT22;11557;50.884;4.322;2023-10-09T16:17:53;21.90;99.90
22781;DHT22;11557;50.884;4.322;2023-10-09T16:20:27;21.80;99.90
22781;DHT22;11557;50.884;4.322;2023-10-09T16:22:53;21.70;99.90
22781;DHT22;11557;50.884;4.322;2023-10-09T16:25:19;21.50;99.90
22781;DHT22;11557;50.884;4.322;2023-10-09T16:27:49;21.60;99.90
22781;DHT22;11557;50.884;4.322;2023-10-09T16:30:16;21.50;99.90
22781;DHT22;11557;50.884;4.322;2023-10-09T16:32:49;21.40;99.90